Time;durP1;ratioP1;P1;durP2;ratioP2;P2;SDS_P1;SDS_P2;PMS_P1;PMS_P2;Temp;Humidity;BMP_temperature;BMP_pressure;BME280_temperature;BME280_humidity;BME280_pressure;Samples;Min_cycle;Max_cycle;Signal;HPM_P1;HPM_P2
2021/09/26 00:01:21;;;;;;;0.30;0.30;;;17.20;99.90;;;;;;5137639;27;20663;-68
2021/09/26 00:03:47;;;;;;;0.30;0.30;;;17.20;99.90;;;;;;5137094;27;20400;-69
2021/09/26 00:06:13;;;;;;;0.30;0.30;;;17.10;99.90;;;;;;5137475;27;20443;-69
2021/09/26 00:08:39;;;;;;;1.97;1.87;;;17.20;99.90;;;;;;5137519;27;20397;-67
2021/09/26 00:11:06;;;;;;;0.40;0.40;;;17.10;99.90;;;;;;5137751;27;20216;-69
2021/09/26 00:13:36;;;;;;;0.60;0.60;;;17.00;99.90;;;;;;5137066;27;20447;-67
2021/09/26 00:16:02;;;;;;;0.40;0.40;;;17.00;99.90;;;;;;5137379;27;20498;-67
2021/09/26 00:18:28;;;;;;;0.30;0.30;;;16.90;99.90;;;;;;5137422;27;20490;-68
2021/09/26 00:20:54;;;;;;;0.30;0.30;;;16.80;99.90;;;;;;5137311;27;20398;-67
2021/09/26 00:23:19;;;;;;;0.40;0.40;;;16.90;99.90;;;;;;5136991;27;20199;-67
2021/09/26 00:25:47;;;;;;;0.30;0.30;;;16.90;99.90;;;;;;5137265;27;20171;-69
2021/09/26 00:28:13;;;;;;;0.40;0.40;;;16.90;99.90;;;;;;5137245;27;20175;-69
2021/09/26 00:30:39;;;;;;;0.30;0.30;;;16.90;99.90;;;;;;5136712;27;20426;-68
2021/09/26 00:33:04;;;;;;;0.50;0.50;;;16.90;99.90;;;;;;5136617;27;20943;-67
2021/09/26 00:35:30;;;;;;;0.30;0.30;;;16.90;99.90;;;;;;5136912;27;20166;-67
2021/09/26 00:37:56;;;;;;;0.30;0.30;;;16.90;99.90;;;;;;5136953;27;20171;-66
2021/09/26 00:40:21;;;;;;;0.30;0.30;;;16.90;99.90;;;;;;5136773;27;20165;-68
2021/09/26 00:42:47;;;;;;;0.40;0.40;;;16.80;99.90;;;;;;5136681;27;20716;-68
2021/09/26 00:45:13;;;;;;;0.30;0.30;;;16.80;99.90;;;;;;5136640;27;20206;-68
2021/09/26 00:47:39;;;;;;;0.60;0.60;;;16.70;99.90;;;;;;5136640;27;20183;-67
2021/09/26 00:50:06;;;;;;;0.50;0.50;;;16.70;99.90;;;;;;5136782;27;20178;-68
2021/09/26 00:52:32;;;;;;;0.40;0.40;;;16.60;99.90;;;;;;5136480;27;20458;-68
2021/09/26 00:54:57;;;;;;;0.30;0.30;;;16.60;99.90;;;;;;5136278;27;20446;-68
2021/09/26 00:57:23;;;;;;;0.30;0.30;;;16.50;99.90;;;;;;5136497;27;20769;-68
2021/09/26 00:59:50;;;;;;;0.77;0.77;;;16.40;99.90;;;;;;5136574;27;20199;-68
2021/09/26 01:02:15;;;;;;;0.30;0.30;;;16.40;99.90;;;;;;5136433;27;20792;-69
2021/09/26 01:04:43;;;;;;;0.40;0.40;;;16.20;99.90;;;;;;5136124;27;20403;-69
2021/09/26 01:07:14;;;;;;;0.30;0.30;;;16.20;99.90;;;;;;5136409;27;20228;-68
2021/09/26 01:10:02;;;;;;;0.60;0.60;;;16.10;99.90;;;;;;5136190;27;20400;-68
2021/09/26 01:12:48;;;;;;;0.30;0.30;;;16.10;99.90;;;;;;5135990;27;20452;-69
2021/09/26 01:15:34;;;;;;;0.30;0.30;;;16.00;99.90;;;;;;5135932;27;20404;-68
2021/09/26 01:18:21;;;;;;;0.40;0.40;;;16.00;99.90;;;;;;5136258;27;20904;-69
2021/09/26 01:20:52;;;;;;;0.30;0.30;;;16.00;99.90;;;;;;5136196;27;20409;-67
2021/09/26 01:23:35;;;;;;;0.30;0.30;;;16.00;99.90;;;;;;5135828;27;20417;-67
2021/09/26 01:26:39;;;;;;;0.30;0.30;;;15.90;99.90;;;;;;5136372;27;20389;-68
2021/09/26 01:29:13;;;;;;;0.50;0.50;;;15.80;99.90;;;;;;5136005;27;20406;-67
2021/09/26 01:31:51;;;;;;;0.30;0.30;;;15.70;99.90;;;;;;5135774;27;21181;-67
2021/09/26 01:34:23;;;;;;;0.40;0.40;;;15.70;99.90;;;;;;5135556;27;20397;-68
2021/09/26 01:37:09;;;;;;;0.30;0.30;;;15.70;99.90;;;;;;5135727;27;20405;-69
2021/09/26 01:40:08;;;;;;;0.30;0.30;;;15.60;99.90;;;;;;5135696;27;20398;-67
2021/09/26 01:42:39;;;;;;;1.40;0.50;;;15.60;99.90;;;;;;5134866;27;20429;-68
2021/09/26 01:45:15;;;;;;;0.70;0.70;;;15.50;99.90;;;;;;5135309;27;20404;-68
2021/09/26 01:47:46;;;;;;;0.53;0.53;;;15.40;99.90;;;;;;5135516;27;20420;-68
2021/09/26 01:50:14;;;;;;;0.40;0.40;;;15.40;99.90;;;;;;5135577;27;20401;-67
2021/09/26 01:52:44;;;;;;;0.83;0.83;;;15.30;99.90;;;;;;5135153;27;20545;-67
2021/09/26 01:55:11;;;;;;;0.40;0.40;;;15.30;99.90;;;;;;5135129;27;20755;-67
2021/09/26 01:57:42;;;;;;;0.30;0.30;;;15.30;99.90;;;;;;5135282;27;20394;-69
2021/09/26 02:00:10;;;;;;;0.40;0.40;;;15.30;99.90;;;;;;5134463;27;20429;-68
2021/09/26 02:02:36;;;;;;;0.30;0.30;;;15.30;99.90;;;;;;5135177;27;20425;-68
2021/09/26 02:05:06;;;;;;;0.30;0.30;;;15.30;99.90;;;;;;5134639;27;20420;-68
2021/09/26 02:07:36;;;;;;;0.30;0.30;;;15.30;99.90;;;;;;5135289;27;20410;-68
2021/09/26 02:10:03;;;;;;;0.40;0.40;;;15.30;99.90;;;;;;5135478;27;20534;-68
2021/09/26 02:12:31;;;;;;;0.30;0.30;;;15.30;99.90;;;;;;5134827;27;20449;-66
2021/09/26 02:14:58;;;;;;;0.40;0.40;;;15.30;99.90;;;;;;5134849;27;20412;-68
2021/09/26 02:17:27;;;;;;;0.30;0.30;;;15.30;99.90;;;;;;5135148;27;20815;-68
2021/09/26 02:19:59;;;;;;;0.30;0.30;;;15.20;99.90;;;;;;5134953;27;20401;-68
2021/09/26 02:22:30;;;;;;;0.30;0.30;;;15.30;99.90;;;;;;5134934;27;20416;-67
2021/09/26 02:24:59;;;;;;;0.40;0.40;;;15.20;99.90;;;;;;5134788;27;20397;-69
2021/09/26 02:27:26;;;;;;;0.30;0.30;;;15.10;99.90;;;;;;5134860;27;20409;-68
2021/09/26 02:29:52;;;;;;;0.30;0.30;;;15.10;99.90;;;;;;5134809;27;20397;-69
2021/09/26 02:32:18;;;;;;;0.30;0.30;;;15.10;99.90;;;;;;5134619;27;20448;-67
2021/09/26 02:34:43;;;;;;;0.63;0.63;;;15.10;99.90;;;;;;5134559;27;20197;-68
2021/09/26 02:37:09;;;;;;;0.30;0.30;;;15.10;99.90;;;;;;5134834;27;20163;-67
2021/09/26 02:39:35;;;;;;;0.30;0.30;;;15.10;99.90;;;;;;5134693;27;20167;-67
2021/09/26 02:42:07;;;;;;;0.47;0.47;;;15.10;99.90;;;;;;5134724;27;20442;-68
2021/09/26 02:44:52;;;;;;;0.30;0.30;;;15.10;99.90;;;;;;5134462;27;20521;-68
2021/09/26 02:47:24;;;;;;;0.30;0.30;;;15.10;99.90;;;;;;5134528;27;20427;-68
2021/09/26 02:49:52;;;;;;;0.30;0.30;;;15.00;99.90;;;;;;5134717;27;20406;-68
2021/09/26 02:52:20;;;;;;;0.30;0.30;;;15.10;99.90;;;;;;5134281;28;20448;-68
2021/09/26 02:54:46;;;;;;;0.30;0.30;;;15.10;99.90;;;;;;5137659;27;20401;-68
2021/09/26 02:57:12;;;;;;;0.30;0.30;;;15.10;99.90;;;;;;5141456;27;20762;-68
2021/09/26 02:59:39;;;;;;;0.50;0.50;;;15.00;99.90;;;;;;5141305;27;20409;-67
2021/09/26 03:02:06;;;;;;;0.30;0.30;;;15.00;99.90;;;;;;5141188;27;20561;-67
2021/09/26 03:04:31;;;;;;;0.30;0.30;;;15.00;99.90;;;;;;5141206;27;20401;-67
2021/09/26 03:06:57;;;;;;;0.50;0.50;;;14.90;99.90;;;;;;5141378;27;20396;-68
2021/09/26 03:09:24;;;;;;;0.30;0.30;;;14.90;99.90;;;;;;5141402;27;20256;-68
2021/09/26 03:11:50;;;;;;;0.40;0.40;;;14.80;99.90;;;;;;5141129;27;20597;-68
2021/09/26 03:14:16;;;;;;;0.40;0.40;;;14.80;99.90;;;;;;5141080;27;20480;-69
2021/09/26 03:16:42;;;;;;;0.40;0.40;;;14.80;99.90;;;;;;5141143;27;20428;-66
2021/09/26 03:19:08;;;;;;;0.30;0.30;;;14.80;99.90;;;;;;5141295;27;20443;-67
2021/09/26 03:21:33;;;;;;;0.30;0.30;;;14.80;99.90;;;;;;5141106;27;20185;-68
2021/09/26 03:23:59;;;;;;;0.30;0.30;;;14.80;99.90;;;;;;5140924;27;20411;-68
2021/09/26 03:26:25;;;;;;;0.30;0.30;;;14.80;99.90;;;;;;5141202;27;20167;-67
2021/09/26 03:28:51;;;;;;;0.40;0.40;;;14.90;99.90;;;;;;5141178;27;20516;-67
2021/09/26 03:31:18;;;;;;;0.30;0.30;;;14.90;99.90;;;;;;5140990;27;20405;-67
2021/09/26 03:33:44;;;;;;;0.30;0.30;;;14.90;99.90;;;;;;5140623;27;20448;-69
2021/09/26 03:36:10;;;;;;;0.30;0.30;;;14.90;99.90;;;;;;5141111;27;20408;-69
2021/09/26 03:38:36;;;;;;;0.30;0.30;;;14.80;99.90;;;;;;5141049;27;20510;-69
2021/09/26 03:41:01;;;;;;;0.30;0.30;;;14.80;99.90;;;;;;5141044;27;20184;-69
2021/09/26 03:43:27;;;;;;;0.67;0.67;;;14.80;99.90;;;;;;5141303;27;20683;-69
2021/09/26 03:45:53;;;;;;;0.50;0.50;;;14.70;99.90;;;;;;5140755;27;20254;-68
2021/09/26 03:48:20;;;;;;;0.47;0.47;;;14.60;99.90;;;;;;5140870;27;20182;-69
2021/09/26 03:50:48;;;;;;;0.40;0.40;;;14.70;99.90;;;;;;5140897;27;20209;-67
2021/09/26 03:53:13;;;;;;;0.40;0.40;;;14.70;99.90;;;;;;5140440;27;20458;-67
2021/09/26 03:55:39;;;;;;;0.30;0.30;;;14.80;99.90;;;;;;5140902;27;20491;-68
2021/09/26 03:58:05;;;;;;;0.30;0.30;;;14.80;99.90;;;;;;5140930;27;20242;-68
2021/09/26 04:00:31;;;;;;;0.30;0.30;;;14.90;99.90;;;;;;5140686;27;20435;-67
2021/09/26 04:02:56;;;;;;;0.40;0.40;;;15.00;99.90;;;;;;5140951;27;20195;-67
2021/09/26 04:05:22;;;;;;;0.30;0.30;;;15.00;99.90;;;;;;5139990;27;20175;-69
2021/09/26 04:07:48;;;;;;;1.07;0.60;;;15.10;99.90;;;;;;5137154;27;20177;-68
2021/09/26 04:10:13;;;;;;;0.30;0.30;;;15.00;99.90;;;;;;5137411;27;20239;-69
2021/09/26 04:12:45;;;;;;;0.77;0.77;;;14.90;99.90;;;;;;5137341;27;20601;-68
2021/09/26 04:15:11;;;;;;;0.30;0.30;;;14.90;99.90;;;;;;5137250;27;20530;-69
2021/09/26 04:17:38;;;;;;;0.60;0.60;;;14.90;99.90;;;;;;5137310;27;20733;-67
2021/09/26 04:20:06;;;;;;;0.40;0.40;;;14.90;99.90;;;;;;5137394;27;20889;-68
2021/09/26 04:22:32;;;;;;;0.40;0.40;;;14.80;99.90;;;;;;5137100;27;20922;-69
2021/09/26 04:24:58;;;;;;;0.30;0.30;;;14.90;99.90;;;;;;5118448;27;20453;-69
2021/09/26 04:27:24;;;;;;;0.80;0.80;;;15.10;99.90;;;;;;5137239;27;20402;-69
2021/09/26 04:29:49;;;;;;;0.30;0.30;;;15.20;99.90;;;;;;5137069;27;20232;-68
2021/09/26 04:32:16;;;;;;;0.30;0.30;;;15.40;99.90;;;;;;5136741;27;20672;-66
2021/09/26 04:34:41;;;;;;;0.40;0.40;;;15.40;99.90;;;;;;5136864;27;20651;-68
2021/09/26 04:37:07;;;;;;;0.30;0.30;;;15.50;99.90;;;;;;5137078;27;20389;-67
2021/09/26 04:39:33;;;;;;;0.40;0.40;;;15.50;99.90;;;;;;5136989;27;20397;-68
2021/09/26 04:41:59;;;;;;;0.40;0.40;;;15.40;99.90;;;;;;5136670;27;20447;-67
2021/09/26 04:44:25;;;;;;;0.47;0.47;;;15.40;99.90;;;;;;5136536;27;20172;-67
2021/09/26 04:46:50;;;;;;;0.30;0.30;;;15.30;99.90;;;;;;5136547;27;20192;-68
2021/09/26 04:49:16;;;;;;;0.40;0.40;;;15.30;99.90;;;;;;5136738;27;20397;-68
2021/09/26 04:51:42;;;;;;;0.30;0.30;;;15.40;99.90;;;;;;5136571;27;20263;-67
2021/09/26 04:54:08;;;;;;;0.80;0.80;;;15.40;99.90;;;;;;5118378;27;20199;-68
2021/09/26 04:56:33;;;;;;;0.30;0.30;;;15.50;99.90;;;;;;5136463;27;20397;-69
2021/09/26 04:58:59;;;;;;;0.40;0.40;;;15.60;99.90;;;;;;5136677;27;20633;-68
2021/09/26 05:01:24;;;;;;;0.30;0.30;;;15.70;99.90;;;;;;5136510;27;20621;-68
2021/09/26 05:03:50;;;;;;;0.30;0.30;;;15.70;99.90;;;;;;5136371;27;20583;-66
2021/09/26 05:06:16;;;;;;;0.30;0.30;;;15.70;99.90;;;;;;5136499;27;20219;-67
2021/09/26 05:08:43;;;;;;;0.30;0.30;;;15.70;99.90;;;;;;5136411;27;20209;-67
2021/09/26 05:11:09;;;;;;;0.50;0.50;;;15.70;99.90;;;;;;5136233;27;20173;-69
2021/09/26 05:13:35;;;;;;;0.83;0.83;;;15.70;99.90;;;;;;5117369;27;20457;-66
2021/09/26 05:16:01;;;;;;;0.83;0.83;;;15.70;99.90;;;;;;5136182;27;20450;-67
2021/09/26 05:18:26;;;;;;;0.40;0.40;;;15.70;99.90;;;;;;5134931;27;20392;-68
2021/09/26 05:20:54;;;;;;;0.40;0.40;;;15.80;99.90;;;;;;5136037;27;20765;-68
2021/09/26 05:23:20;;;;;;;0.40;0.40;;;15.80;99.90;;;;;;5135600;27;20299;-69
2021/09/26 05:25:48;;;;;;;0.90;0.70;;;15.80;99.90;;;;;;5133947;27;20412;-69
2021/09/26 05:28:14;;;;;;;0.40;0.40;;;15.80;99.90;;;;;;5134241;27;20946;-69
2021/09/26 05:30:40;;;;;;;1.03;1.03;;;15.90;99.90;;;;;;5135906;27;20807;-69
2021/09/26 05:33:06;;;;;;;0.30;0.30;;;16.00;99.90;;;;;;5135544;27;20448;-68
2021/09/26 05:35:32;;;;;;;0.30;0.30;;;16.10;99.90;;;;;;5135681;27;20961;-68
2021/09/26 05:37:58;;;;;;;0.40;0.40;;;16.20;99.90;;;;;;5135786;27;20395;-67
2021/09/26 05:40:24;;;;;;;0.70;0.70;;;16.20;99.90;;;;;;5135556;27;20622;-68
2021/09/26 05:42:50;;;;;;;1.40;1.40;;;16.20;99.90;;;;;;5135466;27;20483;-67
2021/09/26 05:45:16;;;;;;;1.00;1.00;;;16.10;99.90;;;;;;5135411;27;20403;-68
2021/09/26 05:47:42;;;;;;;1.67;0.93;;;16.10;99.90;;;;;;5117503;27;20433;-68
2021/09/26 05:50:08;;;;;;;0.97;0.97;;;16.20;99.90;;;;;;5135567;27;20408;-67
2021/09/26 05:52:34;;;;;;;0.30;0.30;;;16.30;99.90;;;;;;5135307;27;20195;-68
2021/09/26 05:54:59;;;;;;;0.63;0.63;;;16.50;99.90;;;;;;5135214;27;20398;-68
2021/09/26 05:57:25;;;;;;;0.30;0.30;;;16.60;99.90;;;;;;5135507;27;20156;-69
2021/09/26 05:59:51;;;;;;;1.20;1.13;;;16.70;99.90;;;;;;5135446;27;20194;-67
2021/09/26 06:02:23;;;;;;;0.30;0.30;;;16.80;99.90;;;;;;5135188;27;20223;-67
2021/09/26 06:04:50;;;;;;;0.40;0.40;;;17.00;99.90;;;;;;5135007;27;20197;-68
2021/09/26 06:07:16;;;;;;;0.30;0.30;;;17.00;99.90;;;;;;5135072;27;20404;-69
2021/09/26 06:09:43;;;;;;;0.30;0.30;;;17.00;99.90;;;;;;5135091;27;20429;-67
2021/09/26 06:12:10;;;;;;;0.30;0.30;;;16.70;99.90;;;;;;5134965;27;20459;-68
2021/09/26 06:14:36;;;;;;;0.30;0.30;;;16.60;99.90;;;;;;5134937;27;20427;-68
2021/09/26 06:17:02;;;;;;;0.37;0.37;;;16.40;99.90;;;;;;5135164;27;20404;-67
2021/09/26 06:19:28;;;;;;;0.30;0.30;;;16.40;99.90;;;;;;5135039;27;20246;-69
2021/09/26 06:21:53;;;;;;;0.30;0.30;;;16.40;99.90;;;;;;5134797;27;20440;-67
2021/09/26 06:24:19;;;;;;;0.30;0.30;;;16.50;99.90;;;;;;5134696;27;20171;-68
2021/09/26 06:26:44;;;;;;;0.60;0.60;;;16.60;99.90;;;;;;5135123;27;20172;-68
2021/09/26 06:32:34;;;;;;;1.03;0.50;;;16.60;99.90;;;;;;5134994;27;20209;-68
2021/09/26 06:35:00;;;;;;;0.30;0.30;;;16.40;99.90;;;;;;5134593;27;20743;-68
2021/09/26 06:37:27;;;;;;;0.40;0.40;;;16.50;99.90;;;;;;5134705;27;20426;-69
2021/09/26 06:39:53;;;;;;;0.30;0.30;;;16.60;99.90;;;;;;5134567;27;20412;-68
2021/09/26 06:42:19;;;;;;;0.30;0.30;;;16.70;99.90;;;;;;5134653;27;20800;-69
2021/09/26 06:51:31;;;;;;;0.40;0.40;;;16.60;99.90;;;;;;5134120;27;20418;-67
2021/09/26 06:53:57;;;;;;;0.30;0.30;;;16.80;99.90;;;;;;5132626;28;20456;-69
2021/09/26 06:56:23;;;;;;;0.30;0.30;;;16.80;99.90;;;;;;5132896;28;20408;-69
2021/09/26 06:58:49;;;;;;;0.30;0.30;;;16.80;99.90;;;;;;5134574;28;20167;-68
2021/09/26 07:01:14;;;;;;;0.30;0.30;;;16.90;99.90;;;;;;5134542;28;20232;-69
2021/09/26 07:03:40;;;;;;;0.30;0.30;;;16.90;99.90;;;;;;5134548;28;20417;-68
2021/09/26 07:06:05;;;;;;;0.40;0.40;;;16.90;99.90;;;;;;5134218;28;20169;-69
2021/09/26 07:08:31;;;;;;;0.30;0.30;;;17.00;99.90;;;;;;5134389;28;20182;-68
2021/09/26 07:10:58;;;;;;;0.30;0.30;;;17.00;99.90;;;;;;5134438;28;20658;-69
2021/09/26 07:13:24;;;;;;;0.30;0.30;;;17.00;99.90;;;;;;5133948;28;20282;-69
2021/09/26 07:15:50;;;;;;;0.33;0.33;;;16.80;99.90;;;;;;5134409;28;20525;-68
2021/09/26 07:18:15;;;;;;;0.30;0.30;;;16.60;99.90;;;;;;5134229;28;20207;-68
2021/09/26 07:20:41;;;;;;;0.30;0.30;;;16.60;99.90;;;;;;5134258;28;20164;-69
2021/09/26 07:23:07;;;;;;;0.30;0.30;;;16.70;99.90;;;;;;5115518;28;20657;-67
2021/09/26 07:25:33;;;;;;;0.30;0.30;;;16.80;99.90;;;;;;5134246;28;20435;-68
2021/09/26 07:27:59;;;;;;;0.30;0.30;;;16.90;99.90;;;;;;5134337;28;20163;-68
2021/09/26 07:30:25;;;;;;;0.43;0.43;;;17.00;99.90;;;;;;5134755;28;20812;-69
2021/09/26 07:32:51;;;;;;;0.30;0.30;;;17.00;99.90;;;;;;5133991;28;20532;-69
2021/09/26 07:35:16;;;;;;;0.30;0.30;;;17.10;99.90;;;;;;5133876;28;20976;-67
2021/09/26 07:37:42;;;;;;;0.30;0.30;;;17.10;99.90;;;;;;5134111;28;20174;-70
2021/09/26 07:40:09;;;;;;;0.30;0.30;;;17.20;99.90;;;;;;5134239;27;20186;-70
2021/09/26 07:42:35;;;;;;;0.30;0.30;;;17.30;99.90;;;;;;5136944;27;20183;-69
2021/09/26 07:45:06;;;;;;;0.30;0.30;;;17.30;99.90;;;;;;5137690;27;20466;-68
2021/09/26 07:47:33;;;;;;;0.30;0.30;;;17.30;99.90;;;;;;5137892;27;20189;-69
2021/09/26 07:50:00;;;;;;;0.40;0.40;;;17.30;99.90;;;;;;5137871;27;20407;-70
2021/09/26 07:52:26;;;;;;;0.87;0.87;;;17.40;99.90;;;;;;5119291;27;21086;-69
2021/09/26 07:54:52;;;;;;;0.30;0.30;;;17.50;99.90;;;;;;5137779;27;20613;-68
2021/09/26 07:57:20;;;;;;;0.30;0.30;;;17.70;99.90;;;;;;5137848;27;20439;-68
2021/09/26 07:59:46;;;;;;;0.40;0.40;;;17.80;99.90;;;;;;5137589;27;20182;-69
2021/09/26 08:02:12;;;;;;;0.30;0.30;;;18.00;99.90;;;;;;5137518;27;20417;-69
2021/09/26 08:04:38;;;;;;;0.40;0.40;;;18.10;99.90;;;;;;5137425;27;20412;-69
2021/09/26 08:07:04;;;;;;;2.30;0.80;;;18.20;99.90;;;;;;5137566;27;20405;-67
2021/09/26 08:09:29;;;;;;;0.30;0.30;;;18.20;99.90;;;;;;5137575;27;20186;-70
2021/09/26 08:11:55;;;;;;;0.60;0.50;;;18.30;99.90;;;;;;5137375;27;20183;-70
2021/09/26 08:14:21;;;;;;;0.30;0.30;;;18.30;99.90;;;;;;5137152;27;20179;-69
2021/09/26 08:16:47;;;;;;;0.30;0.30;;;18.40;99.90;;;;;;5137705;27;20156;-68
2021/09/26 08:19:12;;;;;;;0.30;0.30;;;18.40;99.90;;;;;;5137290;27;20588;-68
2021/09/26 08:21:38;;;;;;;0.30;0.30;;;18.30;99.90;;;;;;5137363;27;20209;-69
2021/09/26 08:24:07;;;;;;;0.30;0.30;;;18.50;99.90;;;;;;5137007;27;20227;-68
2021/09/26 08:26:33;;;;;;;0.30;0.30;;;18.60;99.90;;;;;;5137258;27;20791;-68
2021/09/26 08:28:59;;;;;;;0.30;0.30;;;18.70;99.90;;;;;;5137299;27;20434;-68
2021/09/26 08:31:24;;;;;;;0.30;0.30;;;18.80;99.90;;;;;;5137123;27;20741;-68
2021/09/26 08:33:50;;;;;;;0.30;0.30;;;18.80;99.90;;;;;;5136754;27;20667;-69
2021/09/26 08:36:16;;;;;;;0.40;0.40;;;18.80;99.90;;;;;;5137050;27;20275;-68
2021/09/26 08:38:42;;;;;;;0.40;0.40;;;18.90;99.90;;;;;;5137038;27;20652;-67
2021/09/26 08:41:08;;;;;;;0.30;0.30;;;19.10;99.90;;;;;;5136703;27;20178;-70
2021/09/26 08:43:34;;;;;;;0.30;0.30;;;19.40;99.90;;;;;;5136574;27;20253;-67
2021/09/26 08:46:00;;;;;;;0.30;0.30;;;19.70;99.90;;;;;;5136807;27;20453;-70
2021/09/26 08:48:28;;;;;;;0.30;0.30;;;20.00;99.90;;;;;;5136927;27;20424;-69
2021/09/26 08:50:55;;;;;;;0.30;0.30;;;20.30;99.90;;;;;;5136524;27;20409;-69
2021/09/26 08:53:25;;;;;;;0.30;0.30;;;20.50;99.90;;;;;;5136042;27;20829;-70
2021/09/26 08:55:55;;;;;;;0.30;0.30;;;20.70;99.90;;;;;;5136707;27;20812;-70
2021/09/26 08:58:21;;;;;;;0.40;0.40;;;21.30;99.90;;;;;;5136962;27;20444;-68
2021/09/26 09:00:48;;;;;;;0.30;0.30;;;21.70;99.90;;;;;;5136496;27;20435;-67
2021/09/26 09:03:14;;;;;;;0.30;0.30;;;21.70;99.50;;;;;;5136148;27;20456;-69
2021/09/26 09:05:42;;;;;;;2.33;0.67;;;21.80;99.70;;;;;;5136381;27;20405;-69
2021/09/26 09:08:10;;;;;;;0.30;0.30;;;21.80;99.90;;;;;;5136347;27;20432;-68
2021/09/26 09:10:44;;;;;;;0.70;0.70;;;21.80;99.60;;;;;;5136249;27;20454;-67
2021/09/26 09:13:11;;;;;;;0.30;0.30;;;21.90;98.80;;;;;;5136045;27;20498;-69
2021/09/26 09:15:39;;;;;;;0.30;0.30;;;22.20;99.50;;;;;;5117786;27;20833;-70
2021/09/26 09:18:05;;;;;;;0.60;0.50;;;23.20;97.50;;;;;;5136183;27;20754;-69
2021/09/26 09:20:34;;;;;;;0.40;0.40;;;25.00;95.80;;;;;;5136234;27;20390;-68
2021/09/26 09:23:06;;;;;;;0.40;0.40;;;26.40;92.60;;;;;;5135936;27;20417;-68
2021/09/26 09:25:43;;;;;;;0.40;0.40;;;27.20;90.00;;;;;;5135951;27;20389;-70
2021/09/26 09:28:16;;;;;;;0.40;0.40;;;27.00;89.60;;;;;;5135964;27;20403;-69
2021/09/26 09:30:50;;;;;;;0.30;0.30;;;26.40;87.60;;;;;;5135977;27;20484;-68
2021/09/26 09:33:18;;;;;;;0.30;0.30;;;26.20;90.10;;;;;;5135395;27;20451;-70
2021/09/26 09:35:47;;;;;;;0.83;0.83;;;26.40;90.40;;;;;;5135362;27;20376;-70
2021/09/26 09:38:15;;;;;;;0.40;0.40;;;26.10;90.50;;;;;;5135423;27;20376;-68
2021/09/26 09:40:41;;;;;;;0.77;0.77;;;25.20;89.90;;;;;;5135909;27;20401;-68
2021/09/26 09:43:07;;;;;;;0.30;0.30;;;24.60;91.50;;;;;;5135531;27;20544;-69
2021/09/26 09:45:46;;;;;;;3.07;0.87;;;24.40;92.20;;;;;;5135724;27;20171;-70
2021/09/26 09:48:18;;;;;;;0.37;0.37;;;24.60;94.60;;;;;;5135456;27;20431;-70
2021/09/26 09:51:04;;;;;;;0.30;0.30;;;24.80;93.60;;;;;;5135882;27;20924;-69
2021/09/26 09:53:34;;;;;;;0.30;0.30;;;24.80;92.40;;;;;;5135174;27;20884;-70
2021/09/26 09:56:08;;;;;;;0.30;0.30;;;25.00;92.00;;;;;;5135290;27;20397;-69
2021/09/26 09:58:41;;;;;;;0.40;0.40;;;25.30;92.10;;;;;;5135267;27;20379;-69
2021/09/26 10:01:12;;;;;;;0.40;0.40;;;25.60;90.30;;;;;;5135189;27;20489;-70
2021/09/26 10:03:51;;;;;;;0.63;0.63;;;25.60;90.20;;;;;;5134431;27;20420;-68
2021/09/26 10:06:24;;;;;;;0.40;0.40;;;25.60;87.90;;;;;;5134924;27;20978;-69
2021/09/26 10:08:50;;;;;;;0.30;0.30;;;25.50;89.60;;;;;;5135255;27;20742;-69
2021/09/26 10:11:16;;;;;;;0.50;0.50;;;25.70;89.70;;;;;;5135071;27;20397;-68
2021/09/26 10:13:41;;;;;;;0.70;0.60;;;26.10;87.50;;;;;;5134894;27;20790;-69
2021/09/26 10:16:11;;;;;;;0.30;0.30;;;26.20;88.70;;;;;;5135219;27;20167;-69
2021/09/26 10:18:38;;;;;;;0.30;0.30;;;26.40;87.30;;;;;;5134136;27;20600;-68
2021/09/26 10:21:06;;;;;;;0.40;0.40;;;26.20;88.60;;;;;;5133254;27;20368;-69
2021/09/26 10:23:32;;;;;;;0.30;0.30;;;26.20;85.60;;;;;;5134285;27;20395;-70
2021/09/26 10:25:59;;;;;;;0.40;0.40;;;26.20;87.40;;;;;;5134442;27;20967;-70
2021/09/26 10:28:27;;;;;;;0.40;0.40;;;26.70;83.70;;;;;;5135007;27;20432;-70
2021/09/26 10:31:03;;;;;;;0.63;0.63;;;26.80;85.20;;;;;;5134892;27;20394;-68
2021/09/26 10:33:29;;;;;;;0.40;0.40;;;26.30;83.70;;;;;;5134435;27;20426;-70
2021/09/26 10:35:57;;;;;;;0.60;0.60;;;25.80;83.60;;;;;;5134823;27;20379;-70
2021/09/26 10:38:24;;;;;;;0.30;0.30;;;25.60;85.60;;;;;;5134666;27;20539;-70
2021/09/26 10:40:49;;;;;;;0.30;0.30;;;25.30;89.10;;;;;;5134685;27;20405;-70
2021/09/26 10:43:25;;;;;;;0.30;0.30;;;24.70;90.30;;;;;;5134318;27;20425;-68
2021/09/26 10:46:12;;;;;;;0.30;0.30;;;24.20;89.00;;;;;;5134657;27;20173;-69
2021/09/26 10:48:56;;;;;;;0.30;0.30;;;23.90;91.10;;;;;;5134789;27;20499;-70
2021/09/26 10:51:40;;;;;;;0.53;0.53;;;23.50;90.30;;;;;;5134576;27;20407;-69
2021/09/26 10:54:27;;;;;;;0.90;0.90;;;22.90;90.20;;;;;;5134214;27;20785;-69
2021/09/26 10:57:12;;;;;;;0.30;0.30;;;22.90;92.90;;;;;;5134638;28;20393;-69
2021/09/26 10:59:38;;;;;;;0.30;0.30;;;23.00;93.00;;;;;;5116815;28;20975;-70
2021/09/26 11:02:37;;;;;;;0.60;0.50;;;22.80;91.80;;;;;;5134414;28;20442;-70
2021/09/26 11:05:06;;;;;;;0.40;0.40;;;22.80;93.30;;;;;;5079017;28;20277;-70
2021/09/26 11:07:53;;;;;;;0.30;0.30;;;22.40;92.20;;;;;;5134499;28;20400;-69
2021/09/26 11:10:37;;;;;;;0.40;0.40;;;22.20;91.70;;;;;;5133954;28;20439;-69
2021/09/26 11:13:12;;;;;;;0.30;0.30;;;22.00;92.80;;;;;;5134153;28;20532;-70
2021/09/26 11:16:17;;;;;;;0.30;0.30;;;21.60;93.70;;;;;;5135909;27;20404;-70
2021/09/26 11:18:54;;;;;;;0.30;0.30;;;21.10;93.50;;;;;;5138724;27;20393;-68
2021/09/26 11:21:38;;;;;;;0.57;0.57;;;21.10;95.70;;;;;;5138639;27;20487;-69
2021/09/26 11:24:14;;;;;;;0.70;0.70;;;20.80;95.90;;;;;;5138101;27;20427;-68
2021/09/26 11:26:59;;;;;;;0.60;0.60;;;20.40;96.40;;;;;;5138383;27;20403;-70
2021/09/26 11:29:51;;;;;;;0.30;0.30;;;20.40;95.60;;;;;;5138392;27;20420;-68
2021/09/26 11:32:16;;;;;;;0.50;0.40;;;20.60;95.50;;;;;;5137792;27;20456;-70
2021/09/26 11:34:51;;;;;;;0.30;0.30;;;20.90;95.40;;;;;;5137928;27;20400;-68
2021/09/26 11:37:37;;;;;;;0.37;0.37;;;21.10;95.40;;;;;;5119801;27;20643;-70
2021/09/26 11:40:12;;;;;;;0.50;0.50;;;20.90;97.20;;;;;;5138260;27;20397;-67
2021/09/26 11:42:51;;;;;;;0.40;0.40;;;21.00;98.00;;;;;;5138399;27;20894;-70
2021/09/26 11:45:20;;;;;;;0.30;0.30;;;21.10;98.40;;;;;;5137759;27;20740;-70
2021/09/26 11:48:04;;;;;;;1.37;0.73;;;21.30;96.30;;;;;;5137718;27;20469;-68
2021/09/26 11:50:33;;;;;;;0.30;0.30;;;21.50;96.50;;;;;;5137935;27;20409;-68
2021/09/26 11:52:59;;;;;;;0.30;0.30;;;21.80;96.00;;;;;;5137657;27;20447;-70
2021/09/26 11:55:28;;;;;;;0.57;0.57;;;22.00;95.00;;;;;;5137507;27;20401;-69
2021/09/26 11:57:59;;;;;;;0.30;0.30;;;21.80;95.50;;;;;;5137703;27;20186;-70
2021/09/26 12:00:29;;;;;;;0.30;0.30;;;21.40;97.10;;;;;;5137801;27;20400;-69
2021/09/26 12:02:55;;;;;;;0.80;0.80;;;21.10;95.70;;;;;;5137614;27;20433;-70
2021/09/26 12:05:39;;;;;;;0.30;0.30;;;21.10;97.20;;;;;;5137489;27;20490;-69
2021/09/26 12:08:05;;;;;;;0.30;0.30;;;21.20;96.70;;;;;;5137516;27;20407;-68
2021/09/26 12:10:32;;;;;;;0.40;0.40;;;21.20;97.00;;;;;;5137405;27;20427;-69
2021/09/26 12:12:58;;;;;;;0.30;0.30;;;21.40;94.70;;;;;;5137300;27;20488;-70
2021/09/26 12:15:26;;;;;;;0.40;0.40;;;21.40;96.50;;;;;;5137182;27;20963;-69
2021/09/26 12:17:56;;;;;;;0.40;0.40;;;21.30;96.80;;;;;;5137309;27;20405;-69
2021/09/26 12:20:23;;;;;;;0.30;0.30;;;21.30;95.70;;;;;;5137225;27;20457;-68
2021/09/26 12:22:56;;;;;;;0.70;0.70;;;21.30;94.50;;;;;;5118666;27;20840;-67
2021/09/26 12:25:37;;;;;;;0.30;0.30;;;21.40;96.00;;;;;;5137043;27;20569;-67
2021/09/26 12:28:19;;;;;;;0.60;0.60;;;21.40;97.60;;;;;;5136317;27;20902;-68
2021/09/26 12:30:51;;;;;;;0.40;0.40;;;21.60;96.10;;;;;;5137167;27;20780;-68
2021/09/26 12:33:19;;;;;;;0.40;0.40;;;21.80;96.70;;;;;;5136650;27;20471;-69
2021/09/26 12:35:49;;;;;;;0.60;0.50;;;22.00;95.80;;;;;;5137039;27;20401;-70
2021/09/26 12:38:24;;;;;;;0.40;0.40;;;22.10;95.80;;;;;;5137157;27;20758;-69
2021/09/26 12:40:54;;;;;;;0.50;0.50;;;22.10;95.00;;;;;;5136801;27;20397;-68
2021/09/26 12:43:31;;;;;;;0.30;0.30;;;22.10;95.80;;;;;;5136757;27;20421;-70
2021/09/26 12:46:00;;;;;;;0.50;0.50;;;22.00;94.50;;;;;;5134047;27;20405;-68
2021/09/26 12:48:27;;;;;;;0.30;0.30;;;22.00;93.80;;;;;;5136947;27;20401;-68
2021/09/26 12:51:03;;;;;;;0.30;0.30;;;22.10;93.90;;;;;;5136868;27;20442;-70
2021/09/26 12:53:33;;;;;;;0.40;0.40;;;22.10;94.00;;;;;;5136368;27;20456;-70
2021/09/26 12:56:01;;;;;;;0.40;0.40;;;22.00;93.80;;;;;;5136965;27;20393;-67
2021/09/26 12:58:34;;;;;;;0.80;0.80;;;21.60;94.90;;;;;;5136651;27;20405;-68
2021/09/26 13:01:24;;;;;;;0.30;0.30;;;21.70;95.40;;;;;;5136789;27;20393;-69
2021/09/26 13:04:01;;;;;;;0.43;0.43;;;21.70;93.90;;;;;;5136247;27;20388;-70
2021/09/26 13:06:32;;;;;;;0.30;0.30;;;21.80;95.20;;;;;;5136574;27;20393;-70
2021/09/26 13:08:59;;;;;;;0.50;0.50;;;21.90;94.90;;;;;;5136685;27;20390;-70